Portland, Oregon
Traffic Map
Current Weather Conditions
Portland, Oregon
Overcast
Overcast
63°
Feels Like: 63°
Wind Chill: 63° Ceiling: 2900
Heat Index: 63° Visibility: 10mi
Dew Point: 50° Wind: 6mph
Humidity: 63% Direction: 180° (S)
Pressure: 30.07in Gusts: 0mph
Raw Report DataKPDX 301853Z 18005KT 10SM OVC029 17/10 A3007 RMK AO2 SLP180 T01720100
Traffic Incident Summary
Active as of:
Severity:
Category:
InformationThere was an issue retrieving the traffic information for this location. Please try a different location or try again shortly.
Advertisements
Track Severe Weather on mobile